createdAt,value
2023-03-18T00:01:36.000Z,98975.84
2023-03-18T00:04:24.295Z,98933.88
2023-03-18T00:07:10.767Z,98956.47
2023-03-18T00:09:56.623Z,98965.38
2023-03-18T00:12:43.142Z,98924.94
2023-03-18T00:15:28.951Z,98757.47
2023-03-18T00:18:14.334Z,98957.94
2023-03-18T00:21:01.161Z,98939.81
2023-03-18T00:23:48.814Z,98954.22
2023-03-18T00:26:34.392Z,98967.84
2023-03-18T00:29:19.849Z,98927.63
2023-03-18T00:32:05.517Z,98919.66
2023-03-18T00:34:50.786Z,98952.13
2023-03-18T00:37:36.704Z,98783.75
2023-03-18T00:40:30.974Z,98945.50
2023-03-18T00:43:16.483Z,98982.75
2023-03-18T00:46:02.063Z,98753.22
2023-03-18T00:48:48.475Z,98941.31
2023-03-18T00:51:35.650Z,98938.56
2023-03-18T00:54:22.484Z,98973.28
2023-03-18T00:57:08.067Z,98912.69
2023-03-18T00:59:54.095Z,98937.75
2023-03-18T01:02:39.550Z,98746.94
2023-03-18T01:05:25.221Z,98930.56
2023-03-18T01:08:10.836Z,98929.28
2023-03-18T01:10:57.589Z,98923.06
2023-03-18T01:13:42.952Z,98892.22
2023-03-18T01:16:30.152Z,98852.22
2023-03-18T01:19:16.059Z,98720.03
2023-03-18T01:22:03.191Z,98911.88
2023-03-18T01:24:52.869Z,98914.38
2023-03-18T01:27:44.828Z,98739.72
2023-03-18T01:30:31.427Z,98920.34
2023-03-18T01:33:17.903Z,98922.34
2023-03-18T01:36:05.066Z,98915.41
2023-03-18T01:38:51.959Z,98912.19
2023-03-18T01:41:37.730Z,98714.41
2023-03-18T01:44:25.654Z,98861.69
2023-03-18T01:47:16.597Z,98893.47
2023-03-18T01:50:08.242Z,98920.00
2023-03-18T01:53:05.002Z,98766.44
2023-03-18T01:55:52.188Z,98900.59
2023-03-18T01:58:42.057Z,98905.06
2023-03-18T02:01:34.747Z,98924.72
2023-03-18T02:04:27.383Z,98816.50
2023-03-18T02:07:35.953Z,98931.78
2023-03-18T02:10:26.243Z,98910.47
2023-03-18T02:13:16.080Z,98933.31
2023-03-18T02:16:15.711Z,98725.00
2023-03-18T02:19:09.673Z,98936.56
2023-03-18T02:22:08.801Z,98968.06
2023-03-18T02:24:54.850Z,98929.88
2023-03-18T02:27:43.259Z,98890.81
2023-03-18T02:30:34.310Z,98939.03
2023-03-18T02:33:25.986Z,98933.03
2023-03-18T02:36:18.674Z,98938.00
2023-03-18T02:39:05.335Z,98774.13
2023-03-18T02:41:50.710Z,98935.97
2023-03-18T02:44:41.682Z,98873.66
2023-03-18T02:47:51.895Z,98924.88
2023-03-18T02:50:37.160Z,98872.59
2023-03-18T02:53:22.616Z,98914.59
2023-03-18T02:56:09.189Z,98939.75
2023-03-18T02:58:55.709Z,98879.59
2023-03-18T03:01:44.048Z,98927.38
2023-03-18T03:04:29.341Z,98938.28
2023-03-18T03:07:14.701Z,98771.00
2023-03-18T03:10:06.789Z,98915.47
2023-03-18T03:12:52.823Z,98686.78
2023-03-18T03:15:40.823Z,98915.47
2023-03-18T03:18:26.833Z,98701.94
2023-03-18T03:21:14.260Z,98878.69
2023-03-18T03:24:04.017Z,98943.25
2023-03-18T03:26:49.352Z,98906.53
2023-03-18T03:29:34.750Z,98712.19
2023-03-18T03:32:20.681Z,98908.97
2023-03-18T03:35:09.414Z,98887.66
2023-03-18T03:37:55.807Z,98905.59
2023-03-18T03:40:42.351Z,98708.97
2023-03-18T03:43:27.853Z,98708.53
2023-03-18T03:46:13.466Z,98720.91
2023-03-18T03:48:59.197Z,98701.81
2023-03-18T03:51:45.016Z,98696.38
2023-03-18T03:54:30.729Z,98726.19
2023-03-18T03:57:17.502Z,98921.72
2023-03-18T04:00:05.312Z,98719.25
2023-03-18T04:03:00.619Z,98684.50
2023-03-18T04:05:47.733Z,98845.94
2023-03-18T04:08:36.311Z,98691.91
2023-03-18T04:11:22.532Z,98866.34
2023-03-18T04:14:08.157Z,98895.91
2023-03-18T04:16:58.048Z,98671.97
2023-03-18T04:19:43.852Z,98895.56
2023-03-18T04:22:29.680Z,98895.16
2023-03-18T04:25:15.623Z,98845.44
2023-03-18T04:28:01.095Z,98823.09
2023-03-18T04:30:48.258Z,98682.53
2023-03-18T04:33:35.965Z,98733.59
2023-03-18T04:36:21.627Z,98881.94
2023-03-18T04:39:09.612Z,98909.56
2023-03-18T04:41:57.224Z,98911.00
2023-03-18T04:44:43.873Z,98910.09
2023-03-18T04:47:30.037Z,98868.59
2023-03-18T04:50:15.827Z,98874.78
2023-03-18T04:53:01.913Z,98914.09
2023-03-18T04:55:51.638Z,98700.91
2023-03-18T04:58:41.361Z,98925.59
2023-03-18T05:01:31.002Z,98752.03
2023-03-18T05:04:16.935Z,98753.56
2023-03-18T05:07:07.359Z,98905.34
2023-03-18T05:09:57.143Z,98901.09
2023-03-18T05:12:43.555Z,98904.56
2023-03-18T05:15:31.907Z,98717.19
2023-03-18T05:18:18.788Z,98719.41
2023-03-18T05:21:10.137Z,98915.59
2023-03-18T05:23:57.334Z,98916.53
2023-03-18T05:26:43.387Z,98896.53
2023-03-18T05:29:31.399Z,98916.75
2023-03-18T05:32:47.588Z,98918.81
2023-03-18T05:35:34.719Z,98922.09
2023-03-18T05:38:20.683Z,98931.78
2023-03-18T05:41:07.242Z,98928.09
2023-03-18T05:43:57.327Z,98909.00
2023-03-18T05:46:44.334Z,98924.13
2023-03-18T05:49:36.309Z,98926.97
2023-03-18T05:52:49.440Z,98913.88
2023-03-18T05:55:40.558Z,98772.28
2023-03-18T05:58:31.070Z,98917.97
2023-03-18T06:01:31.560Z,98735.22
2023-03-18T06:04:19.342Z,98846.97
2023-03-18T06:07:06.148Z,98727.13
2023-03-18T06:09:53.316Z,98729.72
2023-03-18T06:12:39.888Z,98908.78
2023-03-18T06:15:25.815Z,98735.72
2023-03-18T06:18:11.737Z,98775.47
2023-03-18T06:20:57.360Z,98877.47
2023-03-18T06:23:43.258Z,98907.78
2023-03-18T06:26:29.311Z,98909.91
2023-03-18T06:29:15.179Z,98759.94
2023-03-18T06:32:04.055Z,98774.63
2023-03-18T06:34:49.874Z,98912.59
2023-03-18T06:37:35.573Z,98923.00
2023-03-18T06:40:22.370Z,98768.84
2023-03-18T06:43:09.109Z,98926.63
2023-03-18T06:45:56.845Z,98921.88
2023-03-18T06:48:44.680Z,98886.38
2023-03-18T06:51:36.699Z,98915.63
2023-03-18T06:54:22.429Z,98908.44
2023-03-18T06:57:08.649Z,98933.09
2023-03-18T06:59:55.073Z,98904.66
2023-03-18T07:02:42.034Z,98915.63
2023-03-18T07:05:30.908Z,98729.25
2023-03-18T07:08:16.961Z,98912.03
2023-03-18T07:11:04.326Z,98860.97
2023-03-18T07:13:51.283Z,98882.81
2023-03-18T07:16:46.500Z,98856.56
2023-03-18T07:19:33.639Z,98911.94
2023-03-18T07:22:19.836Z,98897.19
2023-03-18T07:25:11.090Z,98914.75
2023-03-18T07:28:00.464Z,98912.59
2023-03-18T07:30:46.997Z,98918.22
2023-03-18T07:33:33.252Z,98797.16
2023-03-18T07:36:19.895Z,98896.41
2023-03-18T07:39:10.127Z,98894.81
2023-03-18T07:41:55.660Z,98752.59
2023-03-18T07:44:47.509Z,98912.06
2023-03-18T07:47:35.599Z,98752.22
2023-03-18T07:50:21.969Z,98784.78
2023-03-18T07:53:07.554Z,98920.69
2023-03-18T07:55:53.772Z,98919.06
2023-03-18T07:58:39.439Z,98901.31
2023-03-18T08:01:25.636Z,98764.34
2023-03-18T08:04:11.249Z,98900.88
2023-03-18T08:06:58.284Z,98731.00
2023-03-18T08:09:45.650Z,98910.53
2023-03-18T08:12:45.366Z,98907.66
2023-03-18T08:15:37.306Z,98880.03
2023-03-18T08:18:24.088Z,98917.00
2023-03-18T08:21:10.004Z,98910.00
2023-03-18T08:23:56.773Z,98913.38
2023-03-18T08:26:42.774Z,98908.75
2023-03-18T08:30:03.791Z,98922.69
2023-03-18T08:32:57.965Z,98922.47
2023-03-18T08:35:43.572Z,98774.03
2023-03-18T08:38:29.049Z,98917.16
2023-03-18T08:42:28.010Z,98913.53
2023-03-18T08:45:13.772Z,98906.44
2023-03-18T08:48:00.387Z,98743.78
2023-03-18T08:50:47.058Z,98913.59
2023-03-18T08:53:32.881Z,98914.78
2023-03-18T08:56:18.743Z,98791.31
2023-03-18T08:59:04.594Z,98913.69
2023-03-18T09:01:50.384Z,98934.72
2023-03-18T09:04:36.895Z,98722.16
2023-03-18T09:07:22.544Z,98907.53
2023-03-18T09:10:09.602Z,98811.59
2023-03-18T09:12:55.920Z,98913.47
2023-03-18T09:15:42.261Z,98718.38
2023-03-18T09:18:28.317Z,98901.22
2023-03-18T09:21:14.363Z,98897.69
2023-03-18T09:24:00.464Z,98919.66
2023-03-18T09:26:47.951Z,98872.81
2023-03-18T09:29:33.797Z,98888.88
2023-03-18T09:32:19.667Z,98886.00
2023-03-18T09:35:06.771Z,98777.31
2023-03-18T09:37:54.069Z,98731.69
2023-03-18T09:40:52.115Z,98876.88
2023-03-18T09:43:41.128Z,98892.78
2023-03-18T09:46:37.264Z,98739.28
2023-03-18T09:49:28.866Z,98764.66
2023-03-18T09:52:38.109Z,98878.47
2023-03-18T09:55:30.642Z,98883.44
2023-03-18T09:58:37.357Z,98772.25
2023-03-18T10:01:26.504Z,98884.38
2023-03-18T10:04:23.721Z,98884.78
2023-03-18T10:07:23.154Z,98885.16
2023-03-18T10:10:16.093Z,98879.47
2023-03-18T10:13:06.431Z,98890.00
2023-03-18T10:15:57.564Z,98882.25
2023-03-18T10:18:45.213Z,98891.66
2023-03-18T10:21:49.344Z,98876.53
2023-03-18T10:24:48.835Z,98710.97
2023-03-18T10:27:38.347Z,98885.78
2023-03-18T10:30:57.815Z,98864.19
2023-03-18T10:33:51.920Z,98850.53
2023-03-18T10:36:51.118Z,98881.91
2023-03-18T10:39:39.384Z,98725.44
2023-03-18T10:42:32.085Z,98854.59
2023-03-18T10:45:27.426Z,98850.53
2023-03-18T10:48:38.779Z,98871.94
2023-03-18T10:51:33.179Z,98875.44
2023-03-18T10:54:32.908Z,98852.91
2023-03-18T10:57:21.993Z,98847.34
2023-03-18T11:00:18.736Z,98854.56
2023-03-18T11:03:05.735Z,98817.44
2023-03-18T11:05:53.374Z,98657.66
2023-03-18T11:08:41.073Z,98846.41
2023-03-18T11:11:33.426Z,98814.28
2023-03-18T11:14:22.941Z,98841.97
2023-03-18T11:17:31.184Z,98816.06
2023-03-18T11:20:17.063Z,98787.66
2023-03-18T11:23:12.892Z,98627.22
2023-03-18T11:26:02.957Z,98804.19
2023-03-18T11:28:48.956Z,98660.16
2023-03-18T11:31:48.535Z,98806.94
2023-03-18T11:34:35.506Z,98644.66
2023-03-18T11:37:21.281Z,98813.38
2023-03-18T11:40:20.125Z,98821.84
2023-03-18T11:43:18.828Z,98778.28
2023-03-18T11:46:07.149Z,98806.72
2023-03-18T11:48:54.294Z,98628.56
2023-03-18T11:51:46.205Z,98804.94
2023-03-18T11:54:40.981Z,98781.66
2023-03-18T11:57:30.227Z,98791.78
2023-03-18T12:00:26.302Z,98611.31
2023-03-18T12:03:43.303Z,98773.94
2023-03-18T12:06:31.785Z,98782.06
2023-03-18T12:09:47.363Z,98759.97
2023-03-18T12:13:07.243Z,98808.69
2023-03-18T12:16:04.181Z,98773.91
2023-03-18T12:19:25.179Z,98766.09
2023-03-18T12:22:39.899Z,98788.25
2023-03-18T12:26:02.098Z,98761.38
2023-03-18T12:29:11.445Z,98765.31
2023-03-18T12:32:23.212Z,98760.09
2023-03-18T12:35:42.396Z,98584.22
2023-03-18T12:39:12.747Z,98759.66
2023-03-18T12:42:13.559Z,98756.69
2023-03-18T12:45:05.678Z,98758.50
2023-03-18T12:48:00.864Z,98736.91
2023-03-18T12:51:05.059Z,98584.47
2023-03-18T12:53:55.717Z,98742.16
2023-03-18T12:56:45.774Z,98767.22
2023-03-18T12:59:42.467Z,98725.19
2023-03-18T13:03:07.269Z,98751.50
2023-03-18T13:05:57.396Z,98760.56
2023-03-18T13:08:49.767Z,98749.38
2023-03-18T13:12:02.247Z,98743.97
2023-03-18T13:14:58.356Z,98695.28
2023-03-18T13:17:46.490Z,98735.50
2023-03-18T13:20:38.729Z,98742.34
2023-03-18T13:23:34.125Z,98735.66
2023-03-18T13:26:44.014Z,98741.19
2023-03-18T13:29:36.335Z,98742.69
2023-03-18T13:32:22.956Z,98770.28
2023-03-18T13:35:23.454Z,98707.94
2023-03-18T13:38:33.599Z,98728.31
2023-03-18T13:41:46.764Z,98722.75
2023-03-18T13:44:47.983Z,98727.97
2023-03-18T13:47:37.917Z,98722.75
2023-03-18T13:50:42.472Z,98709.84
2023-03-18T13:53:31.793Z,98589.97
2023-03-18T13:56:48.191Z,98702.44
2023-03-18T13:59:35.458Z,98578.03
2023-03-18T14:02:45.543Z,98567.66
2023-03-18T14:05:40.039Z,98686.31
2023-03-18T14:08:52.613Z,98695.78
2023-03-18T14:11:47.513Z,98648.75
2023-03-18T14:14:42.016Z,98697.09
2023-03-18T14:18:02.964Z,98684.44
2023-03-18T14:20:53.543Z,98661.47
2023-03-18T14:23:44.553Z,98692.53
2023-03-18T14:26:31.644Z,98700.78
2023-03-18T14:29:26.554Z,98526.09
2023-03-18T14:32:34.762Z,98688.94
2023-03-18T14:35:28.050Z,98684.53
2023-03-18T14:38:42.710Z,98681.75
2023-03-18T14:41:31.518Z,98523.66
2023-03-18T14:44:36.344Z,98675.72
2023-03-18T14:47:43.525Z,98689.59
2023-03-18T14:50:40.412Z,98672.75
2023-03-18T14:53:35.154Z,98678.72
2023-03-18T14:56:24.900Z,98516.66
2023-03-18T14:59:24.443Z,98666.94
2023-03-18T15:02:43.868Z,98674.03
2023-03-18T15:05:37.542Z,98665.53
2023-03-18T15:08:34.505Z,98671.69
2023-03-18T15:11:39.266Z,98666.47
2023-03-18T15:14:31.809Z,98673.34
2023-03-18T15:17:17.776Z,98680.34
2023-03-18T15:20:05.503Z,98601.59
2023-03-18T15:22:52.865Z,98500.81
2023-03-18T15:25:41.403Z,98665.34
2023-03-18T15:28:29.171Z,98385.28
2023-03-18T15:31:31.504Z,98669.44
2023-03-18T15:34:27.651Z,98683.53
2023-03-18T15:37:24.047Z,98648.59
2023-03-18T15:40:30.668Z,98704.09
2023-03-18T15:43:21.494Z,98675.84
2023-03-18T15:46:24.239Z,98683.28
2023-03-18T15:49:12.656Z,98667.47
2023-03-18T15:52:03.724Z,98553.13
2023-03-18T15:54:53.319Z,98542.09
2023-03-18T15:57:43.541Z,98668.88
2023-03-18T16:00:35.053Z,98650.13
2023-03-18T16:03:27.246Z,98503.94
2023-03-18T16:06:17.778Z,98706.78
2023-03-18T16:09:35.398Z,98692.34
2023-03-18T16:12:29.657Z,98692.00
2023-03-18T16:15:25.251Z,98691.63
2023-03-18T16:18:18.311Z,98687.44
2023-03-18T16:21:09.603Z,98689.09
2023-03-18T16:23:58.657Z,98694.66
2023-03-18T16:26:46.936Z,98698.72
2023-03-18T16:29:40.261Z,98690.97
2023-03-18T16:32:28.710Z,98685.94
2023-03-18T16:35:27.010Z,98733.47
2023-03-18T16:38:19.600Z,98702.66
2023-03-18T16:41:10.556Z,98714.16
2023-03-18T16:44:00.370Z,98665.28
2023-03-18T16:47:01.629Z,98533.53
2023-03-18T16:49:48.767Z,98550.25
2023-03-18T16:52:35.278Z,98702.38
2023-03-18T16:55:21.366Z,98653.19
2023-03-18T16:58:15.134Z,98548.59
2023-03-18T17:01:05.612Z,98698.19
2023-03-18T17:03:52.057Z,98697.81
2023-03-18T17:06:38.276Z,98702.59
2023-03-18T17:09:25.734Z,98700.78
2023-03-18T17:12:12.098Z,98637.19
2023-03-18T17:15:08.865Z,98703.34
2023-03-18T17:17:58.147Z,98710.56
2023-03-18T17:20:45.700Z,98700.06
2023-03-18T17:23:33.661Z,98707.44
2023-03-18T17:26:19.996Z,98673.91
2023-03-18T17:29:06.150Z,98714.44
2023-03-18T17:31:58.127Z,98712.22
2023-03-18T17:34:47.378Z,98692.69
2023-03-18T17:37:34.530Z,98711.84
2023-03-18T17:40:26.555Z,98727.31
2023-03-18T17:43:25.997Z,98724.91
2023-03-18T17:46:11.922Z,98720.66
2023-03-18T17:48:57.429Z,98732.47
2023-03-18T17:51:43.658Z,98538.84
2023-03-18T17:54:31.544Z,98729.88
2023-03-18T17:57:17.700Z,98735.22
2023-03-18T18:00:03.748Z,98768.94
2023-03-18T18:02:54.837Z,98727.69
2023-03-18T18:05:40.278Z,98735.03
2023-03-18T18:08:26.986Z,98715.09
2023-03-18T18:11:18.971Z,98695.34
2023-03-18T18:14:25.044Z,98695.13
2023-03-18T18:17:15.072Z,98704.72
2023-03-18T18:20:00.590Z,98727.19
2023-03-18T18:22:53.199Z,98719.44
2023-03-18T18:25:38.782Z,98589.59
2023-03-18T18:28:29.432Z,98726.84
2023-03-18T18:31:17.734Z,98615.75
2023-03-18T18:34:04.893Z,98542.69
2023-03-18T18:36:51.471Z,98733.75
2023-03-18T18:39:37.352Z,98578.78
2023-03-18T18:42:22.901Z,98749.19
2023-03-18T18:45:14.932Z,98714.31
2023-03-18T18:48:00.335Z,98549.19
2023-03-18T18:50:46.360Z,98756.69
2023-03-18T18:53:36.640Z,98732.19
2023-03-18T18:56:34.015Z,98574.88
2023-03-18T18:59:23.331Z,98749.44
2023-03-18T19:02:36.165Z,98744.81
2023-03-18T19:05:22.093Z,98746.09
2023-03-18T19:08:20.648Z,98729.84
2023-03-18T19:11:10.080Z,98751.75
2023-03-18T19:14:19.675Z,98749.31
2023-03-18T19:17:06.174Z,98723.25
2023-03-18T19:19:53.126Z,98665.41
2023-03-18T19:22:38.829Z,98732.25
2023-03-18T19:25:25.935Z,98732.56
2023-03-18T19:28:20.859Z,98751.59
2023-03-18T19:31:09.558Z,98764.47
2023-03-18T19:33:55.354Z,98759.09
2023-03-18T19:36:41.845Z,98754.63
2023-03-18T19:39:28.406Z,98743.91
2023-03-18T19:42:16.673Z,98618.75
2023-03-18T19:45:02.649Z,98757.88
2023-03-18T19:47:48.868Z,98781.75
2023-03-18T19:50:35.318Z,98764.59
2023-03-18T19:53:28.132Z,98758.91
2023-03-18T19:56:26.605Z,98750.78
2023-03-18T19:59:20.966Z,98759.84
2023-03-18T20:02:22.637Z,98761.09
2023-03-18T20:05:20.125Z,98740.34
2023-03-18T20:08:06.378Z,98803.34
2023-03-18T20:10:51.952Z,98742.16
2023-03-18T20:13:37.533Z,98745.13
2023-03-18T20:16:24.850Z,98746.25
2023-03-18T20:19:14.626Z,98720.00
2023-03-18T20:22:00.716Z,98765.63
2023-03-18T20:24:46.917Z,98772.41
2023-03-18T20:27:32.631Z,98742.84
2023-03-18T20:30:26.036Z,98695.13
2023-03-18T20:33:16.471Z,98755.75
2023-03-18T20:36:18.671Z,98761.53
2023-03-18T20:39:06.125Z,98751.56
2023-03-18T20:41:52.020Z,98621.00
2023-03-18T20:44:37.632Z,98765.88
2023-03-18T20:47:23.144Z,98760.31
2023-03-18T20:50:13.947Z,98770.16
2023-03-18T20:53:24.034Z,98755.44
2023-03-18T20:56:12.257Z,98762.28
2023-03-18T20:58:58.036Z,98759.22
2023-03-18T21:01:43.926Z,98744.38
2023-03-18T21:04:31.032Z,98748.59
2023-03-18T21:07:16.657Z,98744.44
2023-03-18T21:10:02.088Z,98735.47
2023-03-18T21:12:48.437Z,98736.00
2023-03-18T21:15:34.202Z,98741.84
2023-03-18T21:18:19.893Z,98725.22
2023-03-18T21:21:05.586Z,98726.28
2023-03-18T21:23:52.470Z,98741.53
2023-03-18T21:26:41.945Z,98733.56
2023-03-18T21:29:27.825Z,98705.44
2023-03-18T21:32:22.154Z,98617.06
2023-03-18T21:35:17.150Z,98628.69
2023-03-18T21:38:03.068Z,98727.66
2023-03-18T21:40:53.176Z,98720.66
2023-03-18T21:43:43.728Z,98532.09
2023-03-18T21:46:30.683Z,98719.22
2023-03-18T21:49:16.765Z,98729.56
2023-03-18T21:52:02.570Z,98728.09
2023-03-18T21:54:48.413Z,98557.44
2023-03-18T21:57:34.119Z,98722.16
2023-03-18T22:00:22.533Z,98744.91
2023-03-18T22:03:15.816Z,98709.25
2023-03-18T22:06:01.681Z,98698.25
2023-03-18T22:08:47.807Z,98671.41
2023-03-18T22:11:33.418Z,98737.28
2023-03-18T22:14:18.947Z,98719.41
2023-03-18T22:17:29.065Z,98714.63
2023-03-18T22:20:21.754Z,98550.66
2023-03-18T22:23:18.667Z,98709.88
2023-03-18T22:26:04.520Z,98722.47
2023-03-18T22:28:50.904Z,98716.56
2023-03-18T22:31:37.386Z,98717.06
2023-03-18T22:34:23.619Z,98715.16
2023-03-18T22:37:25.274Z,98714.00
2023-03-18T22:40:26.321Z,98714.31
2023-03-18T22:43:35.950Z,98518.91
2023-03-18T22:46:21.720Z,98690.06
2023-03-18T22:49:08.337Z,98682.97
2023-03-18T22:51:53.573Z,98716.19
2023-03-18T22:54:39.204Z,98717.22
2023-03-18T22:57:28.122Z,98713.81
2023-03-18T23:00:22.232Z,98704.25
2023-03-18T23:03:35.081Z,98702.38
2023-03-18T23:06:24.022Z,98749.03
2023-03-18T23:09:09.730Z,98675.50
2023-03-18T23:11:55.708Z,98706.94
2023-03-18T23:14:41.883Z,98677.13
2023-03-18T23:17:28.361Z,98691.97
2023-03-18T23:20:16.738Z,98703.38
2023-03-18T23:23:02.398Z,98686.63
2023-03-18T23:25:49.646Z,98652.84
2023-03-18T23:28:44.087Z,98564.53
2023-03-18T23:31:31.791Z,98719.63
2023-03-18T23:34:17.278Z,98662.75
2023-03-18T23:37:02.688Z,98710.53
2023-03-18T23:39:48.117Z,98679.53
2023-03-18T23:42:35.685Z,98694.47
2023-03-18T23:45:21.630Z,98680.53
2023-03-18T23:48:07.464Z,98681.59
2023-03-18T23:50:53.762Z,98681.69
2023-03-18T23:53:39.565Z,98675.53
2023-03-18T23:56:25.047Z,98675.53
2023-03-18T23:59:10.496Z,98688.69
